Time;durP1;ratioP1;P1;durP2;ratioP2;P2;SDS_P1;SDS_P2;PMS_P1;PMS_P2;Temp;Humidity;BMP_temperature;BMP_pressure;BME280_temperature;BME280_humidity;BME280_pressure;Samples;Min_cycle;Max_cycle;Signal;HPM_P1;HPM_P2
2022/03/23 00:01:45;;;;;;;;;71.33;55.00;;;;;12.62;47.07;102560.78;5048649;28;45522;-72
2022/03/23 00:04:11;;;;;;;;;69.00;53.67;;;;;12.62;47.20;102557.25;5047389;28;45479;-67
2022/03/23 00:06:37;;;;;;;;;69.33;53.33;;;;;12.59;47.39;102558.25;5050877;28;45383;-65
2022/03/23 00:09:03;;;;;;;;;68.00;52.33;;;;;12.58;47.34;102559.19;5046912;28;45446;-63
2022/03/23 00:11:28;;;;;;;;;68.33;50.67;;;;;12.53;47.33;102566.41;5049087;28;45436;-66
2022/03/23 00:13:57;;;;;;;;;75.67;56.67;;;;;12.52;47.36;102568.19;5049486;28;45384;-67
2022/03/23 00:16:22;;;;;;;;;71.00;50.67;;;;;12.48;47.42;102563.97;5050051;28;45431;-63
2022/03/23 00:18:48;;;;;;;;;69.00;52.33;;;;;12.47;47.53;102567.50;5051525;28;45982;-65
2022/03/23 00:21:14;;;;;;;;;64.33;47.33;;;;;12.44;47.69;102566.78;5050650;28;45399;-62
2022/03/23 00:23:39;;;;;;;;;75.33;52.67;;;;;12.41;47.78;102578.31;5052695;28;45403;-64
2022/03/23 00:26:05;;;;;;;;;68.33;50.33;;;;;12.39;47.87;102572.22;5056128;28;45314;-69
2022/03/23 00:28:31;;;;;;;;;71.67;53.00;;;;;12.36;47.66;102568.84;5049825;28;45531;-70
2022/03/23 00:30:56;;;;;;;;;70.00;54.00;;;;;12.33;47.90;102571.59;5049620;28;45547;-62
2022/03/23 00:33:22;;;;;;;;;75.00;57.00;;;;;12.30;47.86;102577.84;5041542;28;45689;-64
2022/03/23 00:35:49;;;;;;;;;67.00;51.33;;;;;12.26;48.17;102579.75;5051147;28;45749;-66
2022/03/23 00:38:18;;;;;;;;;71.67;54.00;;;;;12.23;48.05;102571.91;5052200;28;45575;-64
2022/03/23 00:40:44;;;;;;;;;72.00;54.67;;;;;12.22;48.41;102582.56;5051865;28;45612;-64
2022/03/23 00:43:10;;;;;;;;;73.00;55.67;;;;;12.18;48.12;102573.91;5054381;28;45391;-65
2022/03/23 00:45:36;;;;;;;;;69.33;53.33;;;;;12.15;48.65;102573.13;5048902;28;45487;-66
2022/03/23 00:48:02;;;;;;;;;69.67;51.33;;;;;12.12;48.40;102571.47;5048059;28;45364;-66
2022/03/23 00:50:27;;;;;;;;;66.67;51.67;;;;;12.08;48.71;102574.25;5050851;28;45368;-67
2022/03/23 00:52:53;;;;;;;;;60.67;49.00;;;;;12.04;48.97;102580.59;5048402;28;45659;-71
2022/03/23 00:55:18;;;;;;;;;68.00;52.67;;;;;12.00;49.35;102572.75;5049352;28;45476;-63
2022/03/23 00:57:44;;;;;;;;;63.33;47.00;;;;;11.96;48.95;102576.44;5045747;28;45408;-65
2022/03/23 01:00:12;;;;;;;;;73.33;54.00;;;;;11.93;48.92;102573.91;5048353;28;45357;-65
2022/03/23 01:02:43;;;;;;;;;64.75;51.25;;;;;11.89;49.05;102572.28;5049077;28;45498;-67
2022/03/23 01:05:11;;;;;;;;;72.00;53.00;;;;;11.86;49.45;102582.13;5050047;28;45644;-70
2022/03/23 01:07:37;;;;;;;;;75.67;57.00;;;;;11.82;49.16;102578.69;5051415;28;45408;-69
2022/03/23 01:10:05;;;;;;;;;71.33;56.00;;;;;11.79;49.29;102580.56;5050227;28;45455;-71
2022/03/23 01:12:30;;;;;;;;;71.00;53.00;;;;;11.76;49.67;102576.22;5051676;28;45413;-73
2022/03/23 01:14:57;;;;;;;;;69.00;51.67;;;;;11.73;49.37;102577.22;5049449;28;45352;-67
2022/03/23 01:17:23;;;;;;;;;69.67;50.67;;;;;11.72;49.51;102575.50;5048792;28;46132;-66
2022/03/23 01:19:48;;;;;;;;;70.00;51.33;;;;;11.71;49.62;102567.63;5048059;28;45387;-63
2022/03/23 01:22:14;;;;;;;;;66.67;51.33;;;;;11.68;49.76;102573.00;5046855;28;45488;-68
2022/03/23 01:24:39;;;;;;;;;65.00;54.00;;;;;11.66;49.53;102572.19;5049870;28;45510;-68
2022/03/23 01:27:05;;;;;;;;;72.00;55.00;;;;;11.63;49.75;102580.22;5048134;28;45498;-68
2022/03/23 01:29:30;;;;;;;;;74.33;57.00;;;;;11.61;50.30;102575.00;5047545;28;45725;-64
2022/03/23 01:31:56;;;;;;;;;69.67;52.67;;;;;11.57;50.31;102576.03;5048435;28;45360;-66
2022/03/23 01:34:22;;;;;;;;;78.33;56.00;;;;;11.51;50.32;102570.94;5050432;28;45511;-66
2022/03/23 01:36:47;;;;;;;;;70.00;53.33;;;;;11.46;50.19;102572.88;5047116;28;45989;-66
2022/03/23 01:39:13;;;;;;;;;71.00;54.33;;;;;11.41;50.26;102567.75;5051645;28;45422;-66
2022/03/23 01:41:40;;;;;;;;;66.00;50.33;;;;;11.37;50.76;102562.63;5047181;28;45174;-66
2022/03/23 01:44:20;;;;;;;;;72.00;53.00;;;;;11.32;50.74;102565.44;5041756;28;45822;-65
2022/03/23 01:47:07;;;;;;;;;72.67;52.33;;;;;11.27;50.40;102564.72;5040382;28;45974;-66
2022/03/23 01:49:35;;;;;;;;;74.00;56.00;;;;;11.25;51.07;102565.69;5044864;28;45570;-65
2022/03/23 01:52:01;;;;;;;;;78.33;56.33;;;;;11.21;50.65;102569.31;5041763;28;45468;-65
2022/03/23 01:54:26;;;;;;;;;72.33;54.67;;;;;11.20;50.64;102571.09;5041510;28;45514;-65
2022/03/23 01:56:53;;;;;;;;;66.33;49.33;;;;;11.18;50.65;102552.69;5041069;28;45329;-66
2022/03/23 01:59:19;;;;;;;;;66.33;50.00;;;;;11.18;50.73;102565.00;5040526;28;45513;-65
2022/03/23 02:01:45;;;;;;;;;65.67;53.33;;;;;11.14;51.03;102560.75;5039198;28;45415;-66
2022/03/23 02:04:10;;;;;;;;;71.67;53.00;;;;;11.12;50.86;102555.50;5039246;28;45364;-65
2022/03/23 02:06:37;;;;;;;;;75.00;54.67;;;;;11.14;50.89;102556.34;5039110;28;45970;-65
2022/03/23 02:09:03;;;;;;;;;71.67;52.00;;;;;11.10;51.12;102551.22;5038324;28;45445;-65
2022/03/23 02:11:29;;;;;;;;;75.00;55.33;;;;;11.06;51.17;102554.84;5041027;28;45465;-65
2022/03/23 02:13:54;;;;;;;;;72.33;52.67;;;;;11.01;51.07;102557.66;5040319;28;45309;-66
2022/03/23 02:16:20;;;;;;;;;69.67;55.67;;;;;10.97;51.50;102553.38;5040787;28;45931;-66
2022/03/23 02:18:46;;;;;;;;;69.67;54.00;;;;;10.91;51.30;102564.13;5041127;28;45388;-65
2022/03/23 02:21:16;;;;;;;;;73.00;55.33;;;;;10.90;51.20;102559.75;5041004;28;45453;-65
2022/03/23 02:23:42;;;;;;;;;73.00;54.67;;;;;10.85;51.12;102552.00;5040702;28;45267;-65
2022/03/23 02:26:09;;;;;;;;;72.67;51.67;;;;;10.84;51.64;102555.56;5040858;28;46250;-65
2022/03/23 02:28:36;;;;;;;;;80.33;59.00;;;;;10.80;51.50;102556.53;5040966;28;45313;-65
2022/03/23 02:31:04;;;;;;;;;74.00;55.33;;;;;10.77;51.60;102561.06;5040716;28;45191;-65
2022/03/23 02:33:29;;;;;;;;;67.67;50.67;;;;;10.75;51.88;102557.63;5040835;28;45324;-66
2022/03/23 02:35:55;;;;;;;;;72.67;55.00;;;;;10.73;51.88;102560.28;5040551;28;45987;-66
2022/03/23 02:38:21;;;;;;;;;67.00;52.00;;;;;10.70;52.33;102556.88;5054419;28;45368;-66
2022/03/23 02:40:47;;;;;;;;;71.67;54.00;;;;;10.68;52.59;102567.47;5053386;28;45477;-66
2022/03/23 02:43:16;;;;;;;;;70.33;54.33;;;;;10.66;52.46;102564.00;5040760;28;45451;-66
2022/03/23 02:45:42;;;;;;;;;67.00;51.33;;;;;10.63;51.71;102556.19;5039229;28;47022;-66
2022/03/23 02:48:09;;;;;;;;;65.33;51.00;;;;;10.65;51.66;102564.06;5040355;28;45253;-66
2022/03/23 02:50:35;;;;;;;;;54.67;45.33;;;;;10.65;51.78;102564.91;5044309;28;45406;-65
2022/03/23 03:01:53;;;;;;;;;66.67;54.33;;;;;10.68;51.47;102571.88;5040563;28;45348;-65
2022/03/23 03:04:19;;;;;;;;;58.00;45.75;;;;;10.70;50.76;102572.69;5040819;28;45329;-65
2022/03/23 03:06:46;;;;;;;;;57.50;46.50;;;;;10.72;50.47;102576.13;5040152;28;45403;-65
2022/03/23 03:09:12;;;;;;;;;48.75;39.75;;;;;10.74;49.43;102569.91;5040209;28;45364;-65
2022/03/23 03:11:38;;;;;;;;;47.25;34.50;;;;;10.79;48.37;102578.53;5040790;28;45471;-65
2022/03/23 03:14:04;;;;;;;;;50.25;40.25;;;;;10.83;48.10;102579.31;5041035;28;45261;-65
2022/03/23 03:16:30;;;;;;;;;44.50;35.00;;;;;10.87;47.26;102578.31;5040063;28;45403;-65
2022/03/23 03:18:55;;;;;;;;;47.00;37.75;;;;;10.90;47.56;102587.00;5042788;28;45455;-65
2022/03/23 03:21:21;;;;;;;;;44.00;36.50;;;;;10.91;47.06;102579.94;5044119;28;45328;-65
2022/03/23 03:23:47;;;;;;;;;40.50;35.00;;;;;10.92;46.98;102581.69;5025760;28;45493;-65
2022/03/23 03:26:14;;;;;;;;;34.00;29.00;;;;;10.95;46.50;102588.63;5043864;28;46627;-65
2022/03/23 03:28:41;;;;;;;;;39.50;34.50;;;;;10.98;46.92;102588.50;5043779;28;45368;-66
2022/03/23 03:31:10;;;;;;;;;38.25;33.00;;;;;10.97;46.00;102586.78;5043952;28;45335;-65
2022/03/23 03:33:36;;;;;;;;;32.75;28.00;;;;;10.97;45.71;102595.56;5043914;28;45543;-65
2022/03/23 03:36:04;;;;;;;;;38.75;30.50;;;;;10.98;45.83;102597.31;5059970;28;45295;-63
2022/03/23 03:38:30;;;;;;;;;33.75;29.50;;;;;10.98;45.68;102610.50;5061336;28;45400;-63
2022/03/23 03:40:57;;;;;;;;;22.50;21.00;;;;;10.98;44.92;102597.31;5054955;28;45376;-63
2022/03/23 03:43:24;;;;;;;;;27.75;26.50;;;;;10.97;45.40;102600.84;5043823;28;45342;-63
2022/03/23 03:45:51;;;;;;;;;36.00;27.00;;;;;10.99;45.39;102604.31;5043490;28;45687;-63
2022/03/23 03:48:17;;;;;;;;;30.75;26.25;;;;;10.99;45.06;102604.31;5043393;28;45288;-64
2022/03/23 03:50:44;;;;;;;;;31.25;29.00;;;;;10.98;44.64;102610.50;5047833;28;45171;-63
2022/03/23 03:53:10;;;;;;;;;34.00;27.25;;;;;11.00;44.76;102611.31;5043364;28;45538;-63
2022/03/23 03:55:36;;;;;;;;;33.50;26.25;;;;;10.99;44.54;102612.22;5043414;28;45387;-63
2022/03/23 03:58:03;;;;;;;;;34.75;26.25;;;;;10.96;44.63;102609.66;5043423;28;45376;-64
2022/03/23 04:00:29;;;;;;;;;30.25;27.25;;;;;10.95;44.80;102617.63;5043654;28;45273;-63
2022/03/23 04:02:54;;;;;;;;;36.25;30.25;;;;;10.95;44.33;102617.63;5043269;28;45392;-60
2022/03/23 04:05:20;;;;;;;;;34.75;28.50;;;;;10.93;44.49;102617.69;5043431;28;45477;-62
2022/03/23 04:07:45;;;;;;;;;33.00;28.25;;;;;10.93;44.38;102622.09;5042997;28;45187;-63
2022/03/23 04:10:11;;;;;;;;;31.75;23.25;;;;;10.93;44.15;102611.53;5043693;28;45267;-62
2022/03/23 04:12:36;;;;;;;;;31.25;26.00;;;;;10.94;43.83;102621.16;5043256;28;45467;-62
2022/03/23 04:15:03;;;;;;;;;34.50;28.25;;;;;10.93;44.00;102622.09;5043194;28;45338;-62
2022/03/23 04:17:28;;;;;;;;;32.00;27.50;;;;;10.90;44.04;102621.28;5043114;28;45323;-62
2022/03/23 04:19:54;;;;;;;;;38.75;28.25;;;;;10.88;44.00;102617.81;5031731;28;45530;-62
2022/03/23 04:22:21;;;;;;;;;31.50;26.75;;;;;10.87;44.01;102623.13;5037983;28;45346;-62
2022/03/23 04:24:47;;;;;;;;;5.50;5.50;;;;;10.87;44.00;102623.13;5042473;28;46308;-61
2022/03/23 04:27:13;;;;;;;;;32.75;28.25;;;;;10.84;44.17;102628.50;5042551;28;45356;-61
2022/03/23 04:29:40;;;;;;;;;36.00;26.25;;;;;10.83;44.05;102625.00;5043087;28;45412;-61
2022/03/23 04:32:07;;;;;;;;;34.50;26.00;;;;;10.81;43.95;102628.56;5041706;28;45395;-61
2022/03/23 04:34:33;;;;;;;;;37.00;27.00;;;;;10.82;43.64;102630.28;5042653;28;45259;-61
2022/03/23 04:36:59;;;;;;;;;26.50;22.75;;;;;10.81;43.83;102626.81;5045999;28;45352;-61
2022/03/23 04:39:24;;;;;;;;;30.25;24.25;;;;;10.79;43.98;102631.25;5062972;28;45515;-61
2022/03/23 04:41:50;;;;;;;;;35.25;28.50;;;;;10.78;43.43;102641.84;5046745;28;45254;-61
2022/03/23 04:44:15;;;;;;;;;29.00;26.50;;;;;10.76;43.83;102636.63;5042501;28;46294;-61
2022/03/23 04:46:41;;;;;;;;;28.00;22.75;;;;;10.74;43.60;102638.44;5042523;28;45340;-61
2022/03/23 04:49:08;;;;;;;;;28.75;25.00;;;;;10.72;43.78;102642.91;5042768;28;45262;-61
2022/03/23 04:51:33;;;;;;;;;28.75;23.00;;;;;10.71;43.98;102654.34;5046442;28;45543;-61
2022/03/23 04:54:00;;;;;;;;;28.75;23.50;;;;;10.70;44.07;102652.63;5042415;28;46246;-61
2022/03/23 04:56:25;;;;;;;;;28.75;26.25;;;;;10.68;43.89;102651.81;5042505;28;45263;-60
2022/03/23 04:58:51;;;;;;;;;33.50;26.00;;;;;10.67;43.77;102652.72;5042875;28;45386;-61
2022/03/23 05:01:16;;;;;;;;;27.75;24.75;;;;;10.65;43.65;102659.78;5042429;28;45274;-61
2022/03/23 05:03:42;;;;;;;;;37.25;24.25;;;;;10.65;43.89;102654.53;5042317;28;46286;-61
2022/03/23 05:06:07;;;;;;;;;24.75;22.00;;;;;10.63;43.48;102653.72;5042252;28;45174;-60
2022/03/23 05:08:33;;;;;;;;;31.75;25.00;;;;;10.62;43.99;102655.50;5042195;28;45281;-61
2022/03/23 05:10:58;;;;;;;;;32.50;25.75;;;;;10.60;43.50;102649.41;5042244;28;45234;-61
2022/03/23 05:13:24;;;;;;;;;29.25;22.75;;;;;10.60;43.59;102653.81;5042160;28;45401;-61
2022/03/23 05:15:50;;;;;;;;;29.25;24.25;;;;;10.59;43.85;102657.38;5041960;28;45342;-61
2022/03/23 05:18:16;;;;;;;;;32.25;25.75;;;;;10.57;43.37;102643.34;5042274;28;45327;-60
2022/03/23 05:20:41;;;;;;;;;24.75;22.25;;;;;10.57;43.68;102652.09;5042080;28;45309;-62
2022/03/23 05:23:07;;;;;;;;;28.25;25.50;;;;;10.54;43.95;102646.06;5041898;28;45316;-61
2022/03/23 05:25:33;;;;;;;;;29.50;26.25;;;;;10.53;43.39;102657.53;5041856;28;45274;-61
2022/03/23 05:27:58;;;;;;;;;29.75;24.00;;;;;10.51;44.04;102657.56;5042321;28;45270;-60
2022/03/23 05:30:24;;;;;;;;;36.00;25.25;;;;;10.50;43.56;102650.56;5042182;28;45550;-60
2022/03/23 05:32:49;;;;;;;;;36.00;27.00;;;;;10.50;43.52;102657.59;5041711;28;45991;-61
2022/03/23 05:35:15;;;;;;;;;35.75;24.25;;;;;10.49;43.91;102659.38;5041522;28;45423;-61
2022/03/23 05:37:40;;;;;;;;;27.00;23.75;;;;;10.50;43.41;102660.22;5050425;28;45454;-61
2022/03/23 05:40:07;;;;;;;;;29.50;23.75;;;;;10.46;43.88;102655.97;5060067;28;45562;-61
2022/03/23 05:42:33;;;;;;;;;53.50;28.50;;;;;10.43;44.14;102663.97;5041455;28;45359;-61
2022/03/23 05:44:58;;;;;;;;;45.50;30.75;;;;;10.42;44.16;102662.22;5041627;28;45439;-61
2022/03/23 05:47:24;;;;;;;;;53.00;36.25;;;;;10.41;44.51;102671.88;5041682;28;45371;-61
2022/03/23 05:49:50;;;;;;;;;50.75;33.25;;;;;10.40;44.45;102672.81;5045739;28;45389;-61
2022/03/23 05:52:16;;;;;;;;;54.75;33.25;;;;;10.38;45.11;102672.00;5041344;28;45357;-61
2022/03/23 05:54:41;;;;;;;;;53.50;35.75;;;;;10.37;44.72;102672.03;5041494;28;45476;-61
2022/03/23 05:57:07;;;;;;;;;39.25;31.50;;;;;10.35;44.36;102666.81;5041627;28;45420;-61
2022/03/23 05:59:33;;;;;;;;;34.75;28.75;;;;;10.37;44.22;102672.91;5041605;28;45257;-61
2022/03/23 06:01:59;;;;;;;;;38.00;30.50;;;;;10.37;45.15;102672.03;5041345;28;45260;-61
2022/03/23 06:04:25;;;;;;;;;45.75;31.75;;;;;10.38;45.10;102672.00;5041322;28;45254;-61
2022/03/23 06:06:52;;;;;;;;;33.00;31.00;;;;;10.38;45.30;102668.50;5041339;28;45352;-61
2022/03/23 06:09:19;;;;;;;;;36.25;28.25;;;;;10.35;44.98;102669.44;5041396;28;45156;-61
2022/03/23 06:11:44;;;;;;;;;32.00;27.00;;;;;10.36;44.83;102667.69;5041214;28;46267;-61
2022/03/23 06:14:10;;;;;;;;;38.00;30.25;;;;;10.40;45.86;102674.56;5041209;28;45363;-61
2022/03/23 06:16:35;;;;;;;;;39.00;30.25;;;;;10.41;45.68;102677.16;5041307;28;45408;-61
2022/03/23 06:19:02;;;;;;;;;43.75;32.00;;;;;10.45;45.54;102675.31;5041278;28;45257;-61
2022/03/23 06:21:28;;;;;;;;;45.50;34.75;;;;;10.49;45.79;102672.53;5040779;28;45316;-61
2022/03/23 06:23:53;;;;;;;;;38.75;34.75;;;;;10.55;46.12;102682.91;5040857;28;45329;-61
2022/03/23 06:26:19;;;;;;;;;62.00;42.00;;;;;10.63;45.97;102678.28;5041335;28;45351;-61
2022/03/23 06:28:44;;;;;;;;;50.25;36.75;;;;;10.74;45.99;102685.03;5041281;28;45253;-61
2022/03/23 06:31:10;;;;;;;;;50.25;38.00;;;;;10.85;46.14;102689.09;5041084;28;45220;-61
2022/03/23 06:33:35;;;;;;;;;56.50;39.50;;;;;10.98;45.95;102686.97;5041069;28;45336;-61
2022/03/23 06:36:01;;;;;;;;;48.75;34.25;;;;;11.12;46.02;102697.94;5041192;28;45494;-61
2022/03/23 06:38:27;;;;;;;;;65.00;43.00;;;;;11.29;45.93;102697.41;5055658;28;45435;-61
2022/03/23 06:40:53;;;;;;;;;55.50;37.75;;;;;11.39;46.28;102693.59;5055388;28;45229;-61
2022/03/23 06:43:18;;;;;;;;;57.75;41.00;;;;;11.54;45.72;102702.81;5055357;28;45277;-61
2022/03/23 06:45:44;;;;;;;;;52.75;39.00;;;;;11.67;45.32;102712.06;5054732;28;45399;-61
2022/03/23 06:48:11;;;;;;;;;57.50;40.50;;;;;11.79;45.54;102708.16;5042646;28;45772;-61
2022/03/23 06:50:36;;;;;;;;;47.00;38.00;;;;;11.88;44.46;102718.44;5046605;28;45856;-61
2022/03/23 06:53:02;;;;;;;;;54.00;37.75;;;;;11.98;44.52;102716.38;5040106;28;46457;-61
2022/03/23 06:55:28;;;;;;;;;44.00;34.25;;;;;12.08;43.85;102715.13;5045243;28;45485;-61
2022/03/23 06:57:54;;;;;;;;;53.00;39.75;;;;;12.13;43.83;102714.97;5052733;28;45489;-61
2022/03/23 07:00:19;;;;;;;;;47.50;37.00;;;;;12.18;43.86;102720.97;5047503;28;45226;-61
2022/03/23 07:02:47;;;;;;;;;13.50;7.50;;;;;12.23;44.18;102721.66;5052018;28;45295;-61
2022/03/23 07:05:14;;;;;;;;;45.75;32.50;;;;;12.25;43.70;102733.06;5048638;28;45352;-61
2022/03/23 07:09:31;;;;;;;;;52.00;36.50;;;;;12.28;43.47;102732.97;5049546;28;45348;-61
2022/03/23 07:10:34;;;;;;;;;50.50;40.50;;;;;12.34;43.14;102729.25;5055545;28;45898;-61
2022/03/23 07:13:00;;;;;;;;;35.25;32.75;;;;;12.41;42.98;102733.41;5048554;28;45390;-61
2022/03/23 07:15:26;;;;;;;;;45.00;36.50;;;;;12.44;42.79;102733.28;5052747;28;45388;-61
2022/03/23 07:17:52;;;;;;;;;39.25;34.25;;;;;12.46;42.76;102736.72;5039047;28;45654;-61
2022/03/23 07:20:18;;;;;;;;;42.50;36.75;;;;;12.48;42.62;102741.06;5053347;28;46130;-61
2022/03/23 07:22:43;;;;;;;;;40.50;33.75;;;;;12.54;42.63;102734.69;5051233;28;45413;-61
2022/03/23 07:25:10;;;;;;;;;52.50;38.00;;;;;12.58;42.68;102745.09;5046755;28;45444;-61
2022/03/23 07:27:35;;;;;;;;;52.00;37.75;;;;;12.62;42.29;102742.34;5048365;28;45360;-61
2022/03/23 07:30:01;;;;;;;;;62.00;43.75;;;;;12.66;42.45;102746.63;5053272;28;46134;-61
2022/03/23 07:32:27;;;;;;;;;42.50;36.75;;;;;12.71;42.49;102753.44;5051537;28;45194;-61
2022/03/23 07:34:52;;;;;;;;;38.00;34.50;;;;;12.76;42.26;102755.94;5046771;28;45481;-61
2022/03/23 07:37:18;;;;;;;;;53.75;40.25;;;;;12.81;41.96;102756.63;5045524;28;45659;-61
2022/03/23 07:39:44;;;;;;;;;38.25;32.50;;;;;12.88;41.63;102757.28;5058521;28;46326;-61
2022/03/23 07:42:09;;;;;;;;;42.25;31.50;;;;;12.91;41.44;102754.50;5062542;28;45361;-63
2022/03/23 07:44:35;;;;;;;;;41.25;30.25;;;;;12.91;41.42;102755.38;5062709;28;45404;-63
2022/03/23 07:47:02;;;;;;;;;50.25;38.00;;;;;12.95;40.71;102746.38;5052457;28;45606;-63
2022/03/23 07:49:27;;;;;;;;;40.75;33.00;;;;;13.00;41.58;102749.75;5048517;28;45489;-63
2022/03/23 07:51:53;;;;;;;;;34.00;31.00;;;;;13.06;40.78;102749.50;5050890;28;45379;-63
2022/03/23 07:54:19;;;;;;;;;32.25;28.75;;;;;13.11;40.75;102747.56;5061485;28;45435;-64
2022/03/23 07:56:44;;;;;;;;;34.50;31.00;;;;;13.17;40.59;102753.53;5041099;28;45252;-64
2022/03/23 07:59:10;;;;;;;;;32.75;29.00;;;;;13.21;40.12;102753.41;5039832;28;46176;-64
2022/03/23 08:01:36;;;;;;;;;34.50;29.50;;;;;13.23;39.77;102748.03;5049982;28;45291;-64
2022/03/23 08:04:01;;;;;;;;;36.50;33.75;;;;;13.25;39.98;102748.84;5047178;28;45353;-64
2022/03/23 08:06:28;;;;;;;;;38.50;31.00;;;;;13.31;39.86;102762.72;5041640;28;45225;-64
2022/03/23 08:08:54;;;;;;;;;35.00;26.75;;;;;13.39;39.60;102759.75;5043466;28;45264;-64
2022/03/23 08:11:21;;;;;;;;;51.50;30.75;;;;;13.48;39.99;102767.34;5043355;28;45332;-64
2022/03/23 08:13:46;;;;;;;;;35.50;31.75;;;;;13.53;39.30;102773.34;5043210;28;45546;-64
2022/03/23 08:16:12;;;;;;;;;32.50;28.00;;;;;13.61;39.05;102781.84;5040947;28;45296;-64
2022/03/23 08:18:37;;;;;;;;;38.00;30.00;;;;;13.65;38.83;102771.97;5060349;28;46183;-64
2022/03/23 08:21:03;;;;;;;;;32.25;29.25;;;;;13.70;38.69;102777.97;5044617;28;45296;-64
2022/03/23 08:23:30;;;;;;;;;37.00;30.50;;;;;13.76;38.73;102775.06;5043091;28;45389;-64
2022/03/23 08:25:55;;;;;;;;;66.00;45.25;;;;;13.83;39.13;102776.56;5043098;28;45186;-64
2022/03/23 08:28:21;;;;;;;;;30.75;28.25;;;;;13.93;38.79;102779.69;5042604;28;46220;-64
2022/03/23 08:30:47;;;;;;;;;32.75;29.00;;;;;14.00;38.14;102781.16;5047056;28;47939;-66
2022/03/23 08:33:12;;;;;;;;;47.00;34.50;;;;;14.06;38.02;102778.28;5050676;28;45335;-63
2022/03/23 08:35:39;;;;;;;;;33.75;28.75;;;;;14.18;38.03;102779.53;5042575;28;45325;-63
2022/03/23 08:38:06;;;;;;;;;41.25;29.50;;;;;14.28;37.90;102783.50;5053940;28;45548;-63
2022/03/23 08:40:33;;;;;;;;;32.75;23.75;;;;;14.36;38.20;102780.53;5053860;28;45550;-63
2022/03/23 08:42:59;;;;;;;;;37.75;28.25;;;;;14.44;37.92;102775.78;5056297;28;45429;-64
2022/03/23 08:45:25;;;;;;;;;26.50;23.00;;;;;14.56;37.92;102777.94;5054736;28;45244;-62
2022/03/23 08:47:52;;;;;;;;;32.75;25.25;;;;;14.62;37.40;102782.97;5053007;28;45420;-61
2022/03/23 08:50:18;;;;;;;;;24.00;20.50;;;;;14.68;37.20;102771.22;5054040;28;45269;-62
2022/03/23 08:52:44;;;;;;;;;31.50;27.25;;;;;14.73;37.13;102786.00;5054150;28;45415;-62
2022/03/23 08:55:16;;;;;;;;;29.00;26.50;;;;;14.79;37.02;102777.78;5044826;28;45233;-62
2022/03/23 08:57:42;;;;;;;;;40.50;28.50;;;;;14.86;36.54;102782.84;5037946;28;45508;-61
2022/03/23 09:00:09;;;;;;;;;27.50;27.00;;;;;14.91;36.75;102781.66;5046041;28;45293;-61
2022/03/23 09:02:34;;;;;;;;;25.00;21.25;;;;;14.95;36.25;102783.28;5042485;28;45309;-62
2022/03/23 09:05:00;;;;;;;;;36.25;28.50;;;;;15.00;36.30;102775.09;5042527;28;45357;-62
2022/03/23 09:07:25;;;;;;;;;31.50;26.75;;;;;15.06;36.07;102782.78;5041914;28;46155;-62
2022/03/23 09:09:51;;;;;;;;;26.75;21.75;;;;;15.11;35.95;102779.94;5040846;28;45350;-65
2022/03/23 09:12:16;;;;;;;;;29.50;24.75;;;;;15.18;35.67;102779.56;5044467;28;45337;-66
2022/03/23 09:14:42;;;;;;;;;34.25;26.25;;;;;15.26;35.93;102785.41;5050387;28;45340;-64
2022/03/23 09:17:08;;;;;;;;;32.00;25.25;;;;;15.30;35.70;102779.00;5046198;28;45435;-61
2022/03/23 09:19:33;;;;;;;;;26.50;23.50;;;;;15.36;35.22;102781.38;5050191;28;45297;-62
2022/03/23 09:21:59;;;;;;;;;29.25;25.75;;;;;15.40;35.12;102778.56;5048877;28;45337;-61
2022/03/23 09:24:28;;;;;;;;;26.00;23.75;;;;;15.40;35.04;102775.91;5055964;28;45566;-62
2022/03/23 09:26:55;;;;;;;;;33.00;27.50;;;;;15.44;35.08;102778.34;5055783;28;46225;-61
2022/03/23 09:29:21;;;;;;;;;26.50;22.00;;;;;15.52;35.25;102775.34;5053668;28;45367;-60
2022/03/23 09:31:47;;;;;;;;;30.50;25.50;;;;;15.58;35.22;102778.56;5047064;28;45474;-60
2022/03/23 09:34:12;;;;;;;;;26.25;23.00;;;;;15.62;34.82;102774.84;5064195;28;45565;-60
2022/03/23 09:39:22;;;;;;;;;19.00;17.50;;;;;15.71;33.39;102768.22;5043258;28;45409;-59
2022/03/23 09:41:48;;;;;;;;;26.00;20.25;;;;;15.73;33.27;102779.66;5052141;28;45906;-60
2022/03/23 09:44:14;;;;;;;;;17.00;16.00;;;;;15.79;33.32;102782.00;5054152;28;45375;-63
2022/03/23 09:46:41;;;;;;;;;36.25;25.75;;;;;15.81;32.91;102782.81;5051863;28;45207;-61
2022/03/23 09:49:07;;;;;;;;;20.50;19.50;;;;;15.84;32.86;102780.00;5052613;28;45363;-62
2022/03/23 09:51:36;;;;;;;;;20.75;16.00;;;;;15.90;33.21;102784.16;5045317;28;45550;-61
2022/03/23 09:54:02;;;;;;;;;23.25;19.00;;;;;15.95;33.06;102778.59;5049879;28;45697;-62
2022/03/23 09:56:28;;;;;;;;;21.75;21.75;;;;;15.98;32.67;102776.66;5055375;28;46183;-63
2022/03/23 09:58:54;;;;;;;;;21.25;17.50;;;;;15.97;32.47;102780.25;5054328;28;45581;-60
2022/03/23 10:01:28;;;;;;;;;23.75;17.00;;;;;16.04;32.55;102776.38;5041727;28;45562;-60
2022/03/23 10:04:12;;;;;;;;;29.25;21.75;;;;;16.12;32.60;102778.63;5044533;28;45318;-60
2022/03/23 10:07:12;;;;;;;;;21.75;20.50;;;;;16.13;32.53;102775.91;5048992;28;45960;-59
2022/03/23 10:09:40;;;;;;;;;19.50;16.75;;;;;16.22;32.23;102784.34;5059078;28;46319;-61
2022/03/23 10:12:47;;;;;;;;;25.25;19.25;;;;;16.25;32.31;102776.19;5051317;28;45415;-60
2022/03/23 10:15:50;;;;;;;;;29.50;21.00;;;;;16.32;32.20;102781.13;5040573;28;45463;-62
2022/03/23 10:18:37;;;;;;;;;25.25;19.00;;;;;16.33;31.88;102780.19;5058163;28;46280;-62
2022/03/23 10:21:03;;;;;;;;;18.00;14.25;;;;;16.33;31.96;102774.88;5051624;28;45296;-62
2022/03/23 10:23:30;;;;;;;;;21.50;19.75;;;;;16.35;31.95;102781.00;5046338;28;45387;-63
2022/03/23 10:25:55;;;;;;;;;23.75;21.00;;;;;16.35;32.14;102772.13;5050146;28;45455;-63
2022/03/23 10:28:21;;;;;;;;;15.75;15.75;;;;;16.39;32.06;102771.03;5026525;28;46783;-63
2022/03/23 10:30:47;;;;;;;;;30.50;22.75;;;;;16.43;32.13;102775.25;5047295;28;45611;-63
2022/03/23 10:33:19;;;;;;;;;22.75;19.75;;;;;16.53;31.78;102765.03;5045599;28;45284;-62
2022/03/23 10:35:45;;;;;;;;;24.50;21.00;;;;;16.61;32.08;102765.47;5056072;28;45639;-63
2022/03/23 10:38:16;;;;;;;;;24.75;18.75;;;;;16.66;31.72;102760.75;5045078;28;45597;-62
2022/03/23 10:40:43;;;;;;;;;22.25;18.75;;;;;16.71;31.86;102759.63;5055139;28;45463;-62
2022/03/23 10:43:20;;;;;;;;;27.00;19.75;;;;;16.77;31.73;102758.44;5047675;28;45662;-63
2022/03/23 10:45:47;;;;;;;;;23.25;19.00;;;;;16.84;31.26;102757.16;5050840;28;45531;-63
2022/03/23 10:48:18;;;;;;;;;28.00;20.00;;;;;16.88;31.36;102755.19;5045425;28;45336;-63
2022/03/23 10:50:55;;;;;;;;;22.25;17.75;;;;;16.90;31.09;102754.16;5050720;28;45253;-62
2022/03/23 10:53:38;;;;;;;;;19.25;17.25;;;;;16.92;30.92;102748.78;5052196;28;45305;-62
2022/03/23 10:56:05;;;;;;;;;30.50;22.25;;;;;16.93;31.44;102750.50;5060224;28;45333;-63
2022/03/23 10:58:32;;;;;;;;;30.50;22.75;;;;;17.00;31.69;102744.75;5053266;28;45364;-63
2022/03/23 11:01:08;;;;;;;;;24.75;22.75;;;;;17.06;31.19;102742.69;5056269;28;45192;-63
2022/03/23 11:03:42;;;;;;;;;28.25;21.00;;;;;17.14;31.10;102744.00;5059953;28;45222;-63
2022/03/23 11:06:12;;;;;;;;;24.25;19.00;;;;;17.19;31.33;102741.94;5059968;28;45659;-63
2022/03/23 11:08:38;;;;;;;;;21.75;20.00;;;;;17.27;31.32;102736.19;5054856;28;46048;-63
2022/03/23 11:16:42;;;;;;;;;22.50;20.75;;;;;17.44;30.56;102743.22;5054992;28;45583;-63
2022/03/23 11:19:11;;;;;;;;;19.50;18.00;;;;;17.47;30.72;102735.94;5060036;28;46057;-63
2022/03/23 11:21:58;;;;;;;;;18.50;17.75;;;;;17.52;30.38;102731.19;5060010;28;45166;-63
2022/03/23 11:24:26;;;;;;;;;22.25;19.00;;;;;17.53;29.53;102727.56;5062608;28;45419;-62
2022/03/23 11:26:53;;;;;;;;;20.50;17.75;;;;;17.55;29.64;102720.38;5060282;28;45426;-63